Worcester Regional Airport Worcester US
ICAO: KORH
IATA: ORH
Category: Medium
Scheduled Services: No

Elevation: 1009 ft
TransAlt. 18000 ft.

Airport Communications:
BRADLEY APP/DEP:119
ATIS:126.55
CLNC DEL:128.65
CTAF:120.5
GND:123.85
BRIDGEPORT RDO:122.2
TWR:120.5
UNICOM:122.95

KORH Zoom In..

If you have problems with the map follow the link
https://www.worldairports.se/pages/airport.php?
ICAO=KORH

Runways:

(A) RW 11 length 7001 ft width 150 ft
ILS 110.90 / hdg 109

(B) RW 15 length 5000 ft width 100 ft
---- / hdg 153

(C) RW 29 length 7001 ft width 150 ft
ILS 110.90 / hdg 289

(D) RW 33 length 5000 ft width 100 ft
---- / hdg 333

Location; KORH
Day. 11 / Time. 14.54 Zulu
* Altimeter: 30.20
* Temperature: -03° c. -26.6°f.
* Wind from: 260° Speed 07 kn.
Dewpoint: -06° c.
Visibility: 10 Statute Miles.
Clouds: Few 6500 ft.
Clouds: Overcast 1000 ft.

KORH 111454Z 26007KT 10SM FEW065 OVC100 M03/M06 A3020 RMK AO2 SNE06 SLP240 P0000 60000 T10331056 51022


Wind From 260°
Speed 07 kn.

 
 
jpsmedia worldairports.se 2019   terms of use